Time;durP1;ratioP1;P1;durP2;ratioP2;P2;SDS_P1;SDS_P2;PMS_P1;PMS_P2;Temp;Humidity;BMP_temperature;BMP_pressure;BME280_temperature;BME280_humidity;BME280_pressure;Samples;Min_cycle;Max_cycle;Signal;HPM_P1;HPM_P2
2024/01/17 00:01:59;;;;;;;6.35;2.03;;;1.10;99.90;;;;;;5050550;28;20035;-78
2024/01/17 00:04:27;;;;;;;5.78;1.92;;;1.10;99.90;;;;;;5032962;28;20036;-78
2024/01/17 00:06:57;;;;;;;3.17;1.77;;;1.00;99.90;;;;;;5053725;28;20033;-77
2024/01/17 00:09:23;;;;;;;7.13;2.38;;;1.00;99.90;;;;;;5050545;28;20033;-78
2024/01/17 00:11:51;;;;;;;4.38;1.90;;;1.00;99.90;;;;;;5045648;28;20032;-78
2024/01/17 00:14:17;;;;;;;5.63;2.15;;;1.00;99.90;;;;;;5034230;28;20078;-78
2024/01/17 00:16:43;;;;;;;5.18;2.03;;;1.00;99.90;;;;;;5018266;28;20053;-78
2024/01/17 00:19:08;;;;;;;6.20;2.83;;;1.10;99.90;;;;;;5034760;28;20041;-78
2024/01/17 00:21:34;;;;;;;5.50;2.38;;;1.10;99.90;;;;;;5036314;28;20068;-78
2024/01/17 00:24:00;;;;;;;5.78;2.50;;;1.10;99.90;;;;;;5056580;28;20044;-78
2024/01/17 00:26:25;;;;;;;5.22;2.33;;;1.10;99.90;;;;;;5057901;28;20485;-77
2024/01/17 00:28:51;;;;;;;5.78;2.28;;;1.00;99.90;;;;;;5042042;28;20043;-78
2024/01/17 00:31:17;;;;;;;4.50;2.25;;;1.00;99.90;;;;;;5025268;28;20439;-78
2024/01/17 00:33:42;;;;;;;5.03;2.33;;;1.00;99.90;;;;;;5054020;28;20040;-78
2024/01/17 00:36:08;;;;;;;8.82;2.90;;;1.00;99.90;;;;;;5040836;28;20131;-78
2024/01/17 00:38:34;;;;;;;8.00;3.28;;;1.00;99.90;;;;;;5058258;28;20037;-78
2024/01/17 00:41:00;;;;;;;5.32;2.22;;;1.00;99.90;;;;;;5055314;28;20036;-77
2024/01/17 00:43:26;;;;;;;4.22;1.88;;;1.00;99.90;;;;;;5039754;28;20044;-78
2024/01/17 00:45:51;;;;;;;6.95;1.95;;;1.00;99.90;;;;;;5055598;28;20090;-78
2024/01/17 00:48:18;;;;;;;5.47;2.40;;;1.00;99.90;;;;;;5058257;28;20127;-78
2024/01/17 00:50:44;;;;;;;12.55;1.83;;;0.90;99.90;;;;;;5057340;28;20040;-78
2024/01/17 00:53:09;;;;;;;4.30;1.83;;;0.90;99.90;;;;;;5056261;28;20110;-78
2024/01/17 00:55:35;;;;;;;6.82;2.30;;;0.90;99.90;;;;;;5057280;28;20035;-78
2024/01/17 00:58:01;;;;;;;5.40;2.72;;;0.90;99.90;;;;;;5038368;28;20101;-77
2024/01/17 01:00:26;;;;;;;3.03;1.27;;;0.90;99.90;;;;;;5039138;28;20045;-78
2024/01/17 01:02:52;;;;;;;6.93;2.38;;;0.90;99.90;;;;;;5056685;28;20052;-78
2024/01/17 01:05:18;;;;;;;4.88;2.55;;;0.90;99.90;;;;;;5057036;28;20417;-78
2024/01/17 01:07:44;;;;;;;6.57;2.80;;;0.90;99.90;;;;;;5037038;28;20033;-78
2024/01/17 01:10:10;;;;;;;7.13;2.75;;;0.80;99.90;;;;;;5057590;28;20048;-78
2024/01/17 01:12:37;;;;;;;4.93;2.45;;;0.80;99.90;;;;;;5056543;28;20045;-78
2024/01/17 01:15:04;;;;;;;8.35;3.13;;;0.80;99.90;;;;;;5050039;28;20085;-78
2024/01/17 01:17:30;;;;;;;8.77;2.88;;;0.80;99.90;;;;;;5053025;28;20082;-78
2024/01/17 01:19:56;;;;;;;9.88;3.58;;;0.80;99.90;;;;;;5057565;28;20130;-78
2024/01/17 01:22:22;;;;;;;10.80;4.05;;;0.80;99.90;;;;;;5044256;28;20599;-78
2024/01/17 01:24:48;;;;;;;6.75;2.65;;;0.80;99.90;;;;;;5029711;28;20033;-78
2024/01/17 01:27:13;;;;;;;10.90;4.15;;;0.80;99.90;;;;;;5054816;28;20098;-78
2024/01/17 01:29:39;;;;;;;9.10;3.63;;;0.90;99.90;;;;;;5054019;28;20056;-78
2024/01/17 01:32:05;;;;;;;4.75;2.15;;;0.80;99.90;;;;;;5043722;28;20037;-78
2024/01/17 01:34:30;;;;;;;5.25;2.67;;;0.80;99.90;;;;;;5050752;28;20459;-77
2024/01/17 01:36:56;;;;;;;4.55;2.90;;;0.80;99.90;;;;;;5020410;28;20040;-78
2024/01/17 01:39:21;;;;;;;5.28;2.97;;;0.80;99.90;;;;;;5020950;28;20449;-78
2024/01/17 01:41:47;;;;;;;7.50;2.85;;;0.80;99.90;;;;;;5021316;28;20482;-78
2024/01/17 01:44:14;;;;;;;7.70;2.70;;;0.70;99.90;;;;;;5055637;28;20041;-78
2024/01/17 01:46:45;;;;;;;11.50;4.18;;;0.70;99.90;;;;;;5038429;28;20091;-78
2024/01/17 01:49:11;;;;;;;8.10;3.83;;;0.70;99.90;;;;;;5044589;28;20037;-78
2024/01/17 01:51:39;;;;;;;9.13;3.63;;;0.80;99.90;;;;;;5047995;28;20036;-78
2024/01/17 01:54:06;;;;;;;10.95;4.20;;;0.80;99.90;;;;;;5040171;28;20071;-78
2024/01/17 01:56:34;;;;;;;11.05;4.50;;;0.80;99.90;;;;;;5055017;28;20101;-78
2024/01/17 01:59:01;;;;;;;6.78;3.05;;;0.80;99.90;;;;;;5056687;28;20102;-78
2024/01/17 02:01:29;;;;;;;11.18;4.32;;;0.80;99.90;;;;;;5056002;28;20451;-78
2024/01/17 02:03:56;;;;;;;10.48;4.63;;;0.80;99.90;;;;;;5040008;28;20048;-78
2024/01/17 02:06:25;;;;;;;8.63;3.38;;;0.80;99.90;;;;;;5039323;28;20041;-78
2024/01/17 02:08:55;;;;;;;11.13;4.93;;;0.80;99.90;;;;;;5056679;28;20559;-78
2024/01/17 02:11:21;;;;;;;5.70;3.50;;;0.80;99.90;;;;;;5055290;28;20043;-78
2024/01/17 02:13:48;;;;;;;5.75;3.05;;;0.80;99.90;;;;;;5039833;28;20044;-78
2024/01/17 02:16:15;;;;;;;8.90;4.82;;;0.80;99.90;;;;;;5038447;28;20040;-78
2024/01/17 02:18:42;;;;;;;7.50;4.28;;;0.80;99.90;;;;;;5056372;28;20047;-78
2024/01/17 02:21:08;;;;;;;5.13;2.42;;;0.80;99.90;;;;;;5056449;28;20033;-78
2024/01/17 02:23:34;;;;;;;8.63;4.22;;;0.90;99.90;;;;;;5055047;28;20040;-78
2024/01/17 02:26:00;;;;;;;11.70;4.95;;;0.90;99.90;;;;;;5038430;28;20033;-78
2024/01/17 02:28:28;;;;;;;6.18;3.20;;;0.90;99.90;;;;;;5056309;28;20058;-78
2024/01/17 02:30:54;;;;;;;7.20;3.92;;;0.80;99.90;;;;;;5038680;28;20032;-78
2024/01/17 02:33:20;;;;;;;8.55;3.78;;;0.80;99.90;;;;;;5055309;28;20044;-78
2024/01/17 02:35:46;;;;;;;11.70;5.18;;;0.80;99.90;;;;;;5025455;28;20051;-78
2024/01/17 02:38:11;;;;;;;8.25;4.68;;;0.80;99.90;;;;;;5036605;28;20475;-78
2024/01/17 02:40:37;;;;;;;8.80;4.13;;;0.80;99.90;;;;;;5056001;28;20484;-78
2024/01/17 02:43:04;;;;;;;5.95;3.35;;;0.80;99.90;;;;;;5069283;28;20036;-78
2024/01/17 02:45:30;;;;;;;6.40;3.80;;;0.80;99.90;;;;;;5054887;28;20493;-78
2024/01/17 02:47:56;;;;;;;13.25;6.15;;;0.70;99.90;;;;;;5030255;28;20037;-78
2024/01/17 02:50:22;;;;;;;12.18;6.28;;;0.70;99.90;;;;;;5019648;28;20033;-78
2024/01/17 02:52:48;;;;;;;11.60;6.40;;;0.70;99.90;;;;;;5053341;28;20508;-78
2024/01/17 02:55:16;;;;;;;7.78;4.40;;;0.70;99.90;;;;;;5038187;28;20036;-78
2024/01/17 02:57:42;;;;;;;11.15;6.53;;;0.60;99.90;;;;;;5038009;28;20115;-78
2024/01/17 03:00:09;;;;;;;13.25;5.82;;;0.70;99.90;;;;;;5038081;28;20057;-78
2024/01/17 03:02:35;;;;;;;12.63;6.18;;;0.70;99.90;;;;;;5055413;28;20070;-78
2024/01/17 03:05:03;;;;;;;14.48;5.43;;;0.70;99.90;;;;;;5037501;28;20029;-78
2024/01/17 03:07:32;;;;;;;8.75;4.53;;;0.70;99.90;;;;;;5037899;28;20070;-78
2024/01/17 03:09:58;;;;;;;12.25;5.97;;;0.70;99.90;;;;;;5072190;28;20043;-78
2024/01/17 03:12:24;;;;;;;6.45;4.05;;;0.70;99.90;;;;;;5055330;28;20040;-78
2024/01/17 03:14:50;;;;;;;8.40;3.90;;;0.70;99.90;;;;;;5063825;28;20044;-78
2024/01/17 03:17:17;;;;;;;6.43;3.25;;;0.80;99.90;;;;;;5052869;28;20103;-77
2024/01/17 03:19:46;;;;;;;4.80;2.53;;;0.80;99.90;;;;;;5036668;28;20497;-78
2024/01/17 03:22:15;;;;;;;7.97;4.85;;;0.80;99.90;;;;;;5038661;28;20066;-78
2024/01/17 03:24:41;;;;;;;7.78;3.88;;;0.70;99.90;;;;;;5054261;28;20028;-78
2024/01/17 03:27:07;;;;;;;10.85;5.22;;;0.70;99.90;;;;;;5055085;28;20095;-77
2024/01/17 03:29:32;;;;;;;9.27;4.35;;;0.70;99.90;;;;;;5054227;28;20043;-78
2024/01/17 03:31:58;;;;;;;8.60;4.32;;;0.70;99.90;;;;;;5054687;28;20066;-78
2024/01/17 03:34:24;;;;;;;6.78;3.95;;;0.70;99.90;;;;;;5038036;28;20090;-78
2024/01/17 03:36:49;;;;;;;9.77;4.80;;;0.70;99.90;;;;;;5038752;28;20040;-78
2024/01/17 03:39:15;;;;;;;8.13;4.15;;;0.60;99.90;;;;;;5037615;28;20515;-78
2024/01/17 03:41:41;;;;;;;8.23;3.80;;;0.60;99.90;;;;;;5038169;28;20131;-78
2024/01/17 03:44:06;;;;;;;12.65;4.75;;;0.60;99.90;;;;;;5037257;28;20045;-78
2024/01/17 03:46:32;;;;;;;7.85;3.88;;;0.60;99.90;;;;;;5043037;28;20029;-78
2024/01/17 03:48:58;;;;;;;9.32;4.95;;;0.60;99.90;;;;;;5020861;28;20113;-77
2024/01/17 03:51:23;;;;;;;15.55;7.15;;;0.60;99.90;;;;;;5035746;28;20221;-77
2024/01/17 03:53:49;;;;;;;10.55;5.50;;;0.60;99.90;;;;;;5055149;28;20044;-78
2024/01/17 03:56:15;;;;;;;9.50;5.53;;;0.60;99.90;;;;;;5046972;28;20036;-77
2024/01/17 03:58:44;;;;;;;9.25;4.63;;;0.60;99.90;;;;;;5039420;28;20578;-78
2024/01/17 04:01:13;;;;;;;8.60;4.68;;;0.60;99.90;;;;;;5040878;28;20454;-78
2024/01/17 04:03:43;;;;;;;10.95;6.28;;;0.60;99.90;;;;;;5029279;28;20044;-78
2024/01/17 04:06:09;;;;;;;9.35;5.18;;;0.60;99.90;;;;;;5040055;28;20594;-78
2024/01/17 04:08:35;;;;;;;12.35;5.45;;;0.60;99.90;;;;;;5063302;28;20094;-77
2024/01/17 04:11:01;;;;;;;11.55;5.53;;;0.60;99.90;;;;;;5043466;28;20067;-77
2024/01/17 04:13:27;;;;;;;7.43;3.72;;;0.60;99.90;;;;;;5043225;28;20577;-78
2024/01/17 04:15:53;;;;;;;9.32;3.92;;;0.60;99.90;;;;;;5053448;28;20036;-78
2024/01/17 04:18:18;;;;;;;12.57;7.20;;;0.60;99.90;;;;;;5036594;28;20101;-77
2024/01/17 04:20:44;;;;;;;9.40;5.43;;;0.60;99.90;;;;;;5017977;28;20585;-78
2024/01/17 04:23:10;;;;;;;8.73;4.90;;;0.70;99.90;;;;;;5054679;28;20059;-78
2024/01/17 04:25:36;;;;;;;10.82;5.65;;;0.60;99.90;;;;;;5036087;28;20071;-78
2024/01/17 04:28:08;;;;;;;11.57;4.38;;;0.60;99.90;;;;;;5048459;28;20132;-77
2024/01/17 04:30:34;;;;;;;12.10;6.53;;;0.60;99.90;;;;;;5047287;28;20036;-77
2024/01/17 04:33:03;;;;;;;8.80;3.92;;;0.50;99.90;;;;;;5018400;28;20040;-78
2024/01/17 04:35:28;;;;;;;12.18;6.30;;;0.50;99.90;;;;;;5040998;28;20039;-78
2024/01/17 04:37:54;;;;;;;7.28;4.30;;;0.60;99.90;;;;;;5015603;28;20044;-77
2024/01/17 04:40:20;;;;;;;8.70;5.22;;;0.50;99.90;;;;;;5035496;28;20055;-77
2024/01/17 04:42:48;;;;;;;7.90;4.72;;;0.50;99.90;;;;;;5034552;28;20067;-77
2024/01/17 04:45:17;;;;;;;11.68;5.50;;;0.50;99.90;;;;;;5017994;28;20036;-78
2024/01/17 04:47:43;;;;;;;9.38;4.15;;;0.50;99.90;;;;;;5039772;28;20033;-77
2024/01/17 04:50:10;;;;;;;11.18;5.70;;;0.40;99.90;;;;;;5014671;28;20388;-77
2024/01/17 04:52:36;;;;;;;10.10;3.38;;;0.40;99.90;;;;;;5051298;28;20102;-77
2024/01/17 04:55:01;;;;;;;11.13;6.63;;;0.40;99.90;;;;;;5033070;28;20447;-77
2024/01/17 04:57:27;;;;;;;7.80;4.53;;;0.40;99.90;;;;;;5040238;28;20041;-77
2024/01/17 04:59:53;;;;;;;9.40;5.70;;;0.30;99.90;;;;;;4999713;28;20148;-77
2024/01/17 05:02:19;;;;;;;10.77;5.50;;;0.40;99.90;;;;;;5027521;28;20049;-77
2024/01/17 05:04:44;;;;;;;10.25;4.97;;;0.30;99.90;;;;;;5030220;28;20030;-77
2024/01/17 05:07:10;;;;;;;6.32;3.83;;;0.40;99.90;;;;;;5018019;28;20461;-77
2024/01/17 05:09:35;;;;;;;8.40;4.47;;;0.40;99.90;;;;;;5017870;28;20501;-77
2024/01/17 05:12:01;;;;;;;9.98;5.72;;;0.40;99.90;;;;;;4995861;28;20040;-77
2024/01/17 05:14:27;;;;;;;7.78;4.82;;;0.40;99.90;;;;;;5003552;28;20069;-77
2024/01/17 05:16:52;;;;;;;8.57;5.20;;;0.30;99.90;;;;;;5001444;28;21506;-77
2024/01/17 05:19:18;;;;;;;12.30;6.45;;;0.30;99.90;;;;;;4996793;28;20045;-77
2024/01/17 05:21:44;;;;;;;11.52;6.32;;;0.30;99.90;;;;;;4993810;28;20037;-77
2024/01/17 05:24:09;;;;;;;9.27;4.65;;;0.30;99.90;;;;;;5008240;28;20124;-77
2024/01/17 05:26:35;;;;;;;10.75;6.07;;;0.30;99.90;;;;;;5011872;28;20045;-77
2024/01/17 05:29:01;;;;;;;10.25;6.43;;;0.30;99.90;;;;;;5017107;28;20037;-77
2024/01/17 05:31:27;;;;;;;11.85;5.47;;;0.30;99.90;;;;;;4994543;28;20049;-77
2024/01/17 05:33:52;;;;;;;10.75;5.15;;;0.30;99.90;;;;;;5014347;28;20486;-77
2024/01/17 05:36:18;;;;;;;8.82;4.40;;;0.30;99.90;;;;;;5012444;28;20037;-77
2024/01/17 05:38:44;;;;;;;10.07;5.60;;;0.30;99.90;;;;;;5015402;28;20041;-77
2024/01/17 05:41:09;;;;;;;10.98;5.53;;;0.30;99.90;;;;;;4996377;28;20045;-76
2024/01/17 05:43:35;;;;;;;8.25;5.03;;;0.30;99.90;;;;;;5013485;28;20128;-77
2024/01/17 05:46:02;;;;;;;7.93;4.68;;;0.20;99.90;;;;;;5012088;28;20049;-77
2024/01/17 05:48:27;;;;;;;10.45;5.90;;;0.20;99.90;;;;;;4991213;28;20038;-77
2024/01/17 05:50:53;;;;;;;7.25;2.22;;;0.30;99.90;;;;;;4995201;28;20038;-76
2024/01/17 05:53:18;;;;;;;10.43;5.03;;;0.30;99.90;;;;;;5012170;28;20128;-76
2024/01/17 05:55:44;;;;;;;10.13;4.40;;;0.30;99.90;;;;;;5005905;28;20124;-77
2024/01/17 05:58:10;;;;;;;10.40;4.40;;;0.30;99.90;;;;;;5025902;28;20037;-77
2024/01/17 06:00:37;;;;;;;10.13;5.93;;;0.30;99.90;;;;;;5031790;28;20047;-77
2024/01/17 06:03:03;;;;;;;8.77;5.05;;;0.30;99.90;;;;;;5044779;28;20033;-77
2024/01/17 06:05:28;;;;;;;2.97;2.03;;;0.30;99.90;;;;;;5035382;28;20044;-77
2024/01/17 06:07:55;;;;;;;12.32;4.65;;;0.30;99.90;;;;;;5055517;28;20032;-77
2024/01/17 06:10:21;;;;;;;10.90;5.68;;;0.30;99.90;;;;;;5031493;28;20036;-76
2024/01/17 06:12:46;;;;;;;7.75;4.25;;;0.40;99.90;;;;;;5035649;28;20041;-77
2024/01/17 06:15:12;;;;;;;18.15;4.88;;;0.30;99.90;;;;;;5056345;28;20047;-77
2024/01/17 06:17:38;;;;;;;10.10;4.82;;;0.30;99.90;;;;;;5038564;28;20037;-76
2024/01/17 06:20:05;;;;;;;10.15;4.72;;;0.30;99.90;;;;;;5056376;28;20047;-76
2024/01/17 06:22:30;;;;;;;10.95;5.68;;;0.30;99.90;;;;;;5056166;28;20051;-77
2024/01/17 06:24:56;;;;;;;5.65;3.40;;;0.30;99.90;;;;;;5039736;28;20570;-77
2024/01/17 06:27:22;;;;;;;11.35;5.00;;;0.30;99.90;;;;;;5045734;28;20109;-77
2024/01/17 06:29:48;;;;;;;12.23;4.18;;;0.30;99.90;;;;;;5047467;28;20689;-76
2024/01/17 06:32:13;;;;;;;9.00;4.53;;;0.20;99.90;;;;;;5046925;28;20044;-76
2024/01/17 06:34:39;;;;;;;10.43;5.80;;;0.20;99.90;;;;;;5028182;28;20036;-76
2024/01/17 06:37:06;;;;;;;7.65;3.25;;;0.20;99.90;;;;;;5030007;28;20044;-76
2024/01/17 06:39:32;;;;;;;13.20;6.65;;;0.20;99.90;;;;;;5049890;28;20044;-77
2024/01/17 06:41:58;;;;;;;11.48;6.53;;;0.20;99.90;;;;;;5028734;28;20059;-76
2024/01/17 06:44:27;;;;;;;11.63;5.07;;;0.10;99.90;;;;;;5028100;28;20098;-77
2024/01/17 06:46:53;;;;;;;9.10;4.82;;;0.10;99.90;;;;;;5039061;28;20028;-76
2024/01/17 06:49:19;;;;;;;9.68;4.32;;;0.10;99.90;;;;;;5055354;28;20036;-76
2024/01/17 06:51:45;;;;;;;12.48;5.60;;;0.10;99.90;;;;;;5055853;28;20455;-76
2024/01/17 06:54:11;;;;;;;8.20;3.63;;;0.10;99.90;;;;;;5049843;28;20520;-76
2024/01/17 06:56:37;;;;;;;11.05;5.93;;;0.10;99.90;;;;;;5016968;28;20036;-76
2024/01/17 06:59:04;;;;;;;10.63;3.60;;;0.10;99.90;;;;;;5049067;28;20525;-77
2024/01/17 07:01:30;;;;;;;7.93;4.25;;;0.20;99.90;;;;;;5054901;28;20033;-76
2024/01/17 07:03:55;;;;;;;10.90;5.15;;;0.10;99.90;;;;;;5035535;28;20065;-76
2024/01/17 07:06:21;;;;;;;8.45;3.85;;;0.10;99.90;;;;;;5032573;28;20044;-76
2024/01/17 07:08:47;;;;;;;8.15;4.53;;;0.00;99.90;;;;;;5037644;28;20470;-76
2024/01/17 07:11:13;;;;;;;4.30;2.20;;;0.00;99.90;;;;;;5032856;28;20044;-76
2024/01/17 07:13:39;;;;;;;10.82;5.82;;;0.00;99.90;;;;;;5038242;28;20051;-76
2024/01/17 07:16:06;;;;;;;6.70;2.92;;;-0.10;99.90;;;;;;5034145;28;20170;-76
2024/01/17 07:18:33;;;;;;;12.65;6.15;;;-0.10;99.90;;;;;;5033987;28;20251;-76
2024/01/17 07:21:03;;;;;;;6.97;3.15;;;-0.10;99.90;;;;;;5015851;28;21349;-76
2024/01/17 07:23:28;;;;;;;11.80;6.38;;;-0.10;99.90;;;;;;5035135;28;20040;-76
2024/01/17 07:25:54;;;;;;;8.60;4.65;;;-0.20;99.90;;;;;;5016306;28;20520;-76
2024/01/17 07:28:20;;;;;;;10.55;5.85;;;-0.20;99.90;;;;;;5032401;28;20036;-76
2024/01/17 07:30:45;;;;;;;10.57;6.18;;;-0.20;99.90;;;;;;5018369;28;20057;-76
2024/01/17 07:33:11;;;;;;;10.95;6.13;;;-0.20;99.90;;;;;;5048678;28;20052;-76
2024/01/17 07:35:37;;;;;;;12.05;7.07;;;-0.30;99.90;;;;;;5053859;28;20064;-76
2024/01/17 07:38:02;;;;;;;13.13;6.10;;;-0.30;99.90;;;;;;5031892;28;20044;-76
2024/01/17 07:40:28;;;;;;;10.90;6.22;;;-0.30;99.90;;;;;;5034590;28;20164;-76
2024/01/17 07:42:54;;;;;;;9.25;4.90;;;-0.30;99.90;;;;;;5011013;28;20123;-76
2024/01/17 07:45:21;;;;;;;9.82;5.50;;;-0.30;99.90;;;;;;5036677;28;20029;-76
2024/01/17 07:47:47;;;;;;;10.05;3.83;;;-0.30;99.90;;;;;;5024351;28;21567;-76
2024/01/17 07:50:13;;;;;;;5.28;3.33;;;-0.30;99.90;;;;;;5053605;28;20067;-76
2024/01/17 07:52:38;;;;;;;10.77;4.95;;;-0.30;99.90;;;;;;5027195;28;20127;-76
2024/01/17 07:55:05;;;;;;;5.20;3.35;;;-0.30;99.90;;;;;;5037681;28;20143;-74
2024/01/17 07:57:30;;;;;;;6.65;3.25;;;-0.40;99.90;;;;;;5031077;28;20044;-76
2024/01/17 07:59:56;;;;;;;5.93;3.35;;;-0.30;99.90;;;;;;5041552;28;20053;-76
2024/01/17 08:02:22;;;;;;;10.48;5.47;;;-0.40;99.90;;;;;;5023360;28;20139;-76
2024/01/17 08:04:52;;;;;;;6.07;3.00;;;-0.40;99.90;;;;;;5028355;28;20037;-76
2024/01/17 08:07:18;;;;;;;9.00;4.20;;;-0.40;99.90;;;;;;5022785;28;20593;-76
2024/01/17 08:09:43;;;;;;;11.57;5.03;;;-0.40;99.90;;;;;;5040216;28;20048;-76
2024/01/17 08:12:09;;;;;;;14.52;6.38;;;-0.40;99.90;;;;;;5028366;28;20505;-76
2024/01/17 08:14:35;;;;;;;7.95;3.70;;;-0.50;99.90;;;;;;5027737;28;20741;-76
2024/01/17 08:17:01;;;;;;;6.03;3.13;;;-0.50;99.90;;;;;;5030050;28;20041;-76
2024/01/17 08:19:27;;;;;;;9.00;3.88;;;-0.50;99.90;;;;;;5026462;28;20036;-76
2024/01/17 08:21:53;;;;;;;9.88;4.97;;;-0.50;99.90;;;;;;5026954;28;20036;-77
2024/01/17 08:24:19;;;;;;;14.55;7.15;;;-0.50;99.90;;;;;;5025050;28;20032;-76
2024/01/17 08:26:45;;;;;;;6.90;3.60;;;-0.60;99.90;;;;;;5037891;28;20516;-76
2024/01/17 08:29:10;;;;;;;11.15;4.13;;;-0.60;99.90;;;;;;5052364;28;20366;-76
2024/01/17 08:31:36;;;;;;;13.95;6.47;;;-0.60;99.90;;;;;;5034465;28;20234;-77
2024/01/17 08:34:03;;;;;;;9.30;4.57;;;-0.60;99.90;;;;;;5053897;28;20036;-77
2024/01/17 08:36:29;;;;;;;12.10;5.50;;;-0.50;99.90;;;;;;5054048;28;20439;-77
2024/01/17 08:38:56;;;;;;;3.65;1.73;;;-0.60;99.90;;;;;;5047794;28;20040;-76
2024/01/17 08:41:21;;;;;;;5.60;2.78;;;-0.60;99.90;;;;;;5027937;28;20087;-76
2024/01/17 08:43:47;;;;;;;10.70;5.68;;;-0.50;99.90;;;;;;5033929;28;20451;-76
2024/01/17 08:46:14;;;;;;;8.95;4.13;;;-0.50;99.90;;;;;;5037711;28;20127;-76
2024/01/17 08:48:40;;;;;;;9.00;4.03;;;-0.50;99.90;;;;;;5038291;28;20040;-76
2024/01/17 08:51:08;;;;;;;5.65;2.85;;;-0.50;99.90;;;;;;5039590;28;20448;-76
2024/01/17 08:53:34;;;;;;;11.68;5.85;;;-0.50;99.90;;;;;;5047501;28;20044;-77
2024/01/17 08:56:02;;;;;;;11.38;5.13;;;-0.60;99.90;;;;;;5056351;28;20041;-76
2024/01/17 08:58:28;;;;;;;10.45;3.67;;;-0.60;99.90;;;;;;5040980;28;20409;-76
2024/01/17 09:00:53;;;;;;;11.98;6.30;;;-0.60;99.90;;;;;;5038647;28;20052;-76
2024/01/17 09:03:20;;;;;;;9.27;4.13;;;-0.60;99.90;;;;;;5056655;28;20052;-76
2024/01/17 09:05:46;;;;;;;11.20;6.13;;;-0.60;99.90;;;;;;5038843;28;20482;-77
2024/01/17 09:08:13;;;;;;;9.85;5.32;;;-0.60;99.90;;;;;;5056832;28;20043;-77
2024/01/17 09:10:38;;;;;;;13.27;6.40;;;-0.60;99.90;;;;;;5041115;28;20599;-76
2024/01/17 09:13:04;;;;;;;9.50;4.68;;;-0.60;99.90;;;;;;5056073;28;20132;-77
2024/01/17 09:15:30;;;;;;;13.55;6.72;;;-0.60;99.90;;;;;;5040218;28;20086;-77
2024/01/17 09:17:55;;;;;;;9.95;4.93;;;-0.60;99.90;;;;;;5040640;28;20489;-76
2024/01/17 09:20:21;;;;;;;9.82;5.47;;;-0.60;99.90;;;;;;5055304;28;20516;-76
2024/01/17 09:22:46;;;;;;;4.88;2.53;;;-0.60;99.90;;;;;;5033677;28;20053;-76
2024/01/17 09:25:12;;;;;;;12.27;6.75;;;-0.50;99.90;;;;;;5052913;28;20034;-77
2024/01/17 09:27:38;;;;;;;9.65;4.28;;;-0.50;99.90;;;;;;5038714;28;20099;-77
2024/01/17 09:30:04;;;;;;;9.05;5.30;;;-0.50;99.90;;;;;;5035119;28;20493;-77
2024/01/17 09:32:30;;;;;;;9.55;5.03;;;-0.40;99.90;;;;;;5038764;28;20036;-77
2024/01/17 09:34:55;;;;;;;13.65;5.60;;;-0.40;99.90;;;;;;5036049;28;20036;-76
2024/01/17 09:37:21;;;;;;;10.10;4.57;;;-0.50;99.90;;;;;;5056824;28;20060;-76
2024/01/17 09:39:50;;;;;;;12.27;5.35;;;-0.40;99.90;;;;;;5040483;28;20485;-76
2024/01/17 09:42:17;;;;;;;10.77;4.97;;;-0.40;99.90;;;;;;5057035;28;20044;-76
2024/01/17 09:44:43;;;;;;;7.28;4.35;;;-0.40;99.90;;;;;;5032269;28;20115;-76
2024/01/17 09:47:12;;;;;;;8.90;4.47;;;-0.40;99.90;;;;;;5040081;28;20124;-73
2024/01/17 09:49:39;;;;;;;10.95;4.32;;;-0.30;99.90;;;;;;5037373;28;20044;-77
2024/01/17 09:52:06;;;;;;;6.65;3.75;;;-0.30;99.90;;;;;;5056023;28;20036;-77
2024/01/17 09:54:45;;;;;;;10.48;3.63;;;-0.20;99.90;;;;;;5038035;28;20052;-76
2024/01/17 09:57:19;;;;;;;11.98;5.20;;;-0.30;99.90;;;;;;5019911;28;20045;-76
2024/01/17 10:00:09;;;;;;;12.35;5.53;;;-0.20;99.90;;;;;;5022175;28;20394;-76
2024/01/17 10:02:39;;;;;;;7.18;4.03;;;-0.20;99.90;;;;;;5036441;28;20127;-76
2024/01/17 10:05:08;;;;;;;10.15;4.60;;;-0.20;99.90;;;;;;5022743;28;20029;-76
2024/01/17 10:07:34;;;;;;;11.90;5.63;;;-0.10;99.90;;;;;;5055825;28;20037;-76
2024/01/17 10:10:00;;;;;;;7.20;3.50;;;-0.10;99.90;;;;;;5056248;28;20059;-76
2024/01/17 10:12:25;;;;;;;11.18;4.97;;;-0.10;99.90;;;;;;5056179;28;20041;-76
2024/01/17 10:14:51;;;;;;;16.13;5.82;;;0.00;99.90;;;;;;5037251;28;20029;-76
2024/01/17 10:17:17;;;;;;;10.63;6.03;;;-0.10;99.90;;;;;;5032128;28;20033;-76
2024/01/17 10:19:43;;;;;;;11.75;5.47;;;-0.10;99.90;;;;;;5063669;28;20162;-76
2024/01/17 10:22:10;;;;;;;9.55;5.50;;;0.00;99.90;;;;;;5040008;28;20063;-76
2024/01/17 10:24:37;;;;;;;8.75;3.90;;;0.00;99.90;;;;;;5051740;28;20037;-76
2024/01/17 10:27:04;;;;;;;9.25;4.40;;;0.00;99.90;;;;;;5048659;28;20066;-76
2024/01/17 10:29:30;;;;;;;9.75;4.25;;;0.00;99.90;;;;;;5055630;28;20112;-76
2024/01/17 10:31:58;;;;;;;13.43;6.10;;;0.00;99.90;;;;;;5056058;28;20076;-76
2024/01/17 10:34:27;;;;;;;8.77;4.50;;;0.10;99.90;;;;;;5037830;28;20040;-76
2024/01/17 10:36:53;;;;;;;8.93;4.22;;;0.20;99.90;;;;;;5036217;28;20656;-76
2024/01/17 10:39:19;;;;;;;11.15;5.72;;;0.20;99.90;;;;;;5053849;28;20123;-76
2024/01/17 10:41:54;;;;;;;4.07;2.05;;;0.20;99.90;;;;;;5038714;28;20143;-76
2024/01/17 10:44:27;;;;;;;9.57;5.40;;;0.30;99.90;;;;;;5019257;28;20371;-76
2024/01/17 10:46:54;;;;;;;7.07;3.65;;;0.30;99.90;;;;;;5051362;28;20162;-76
2024/01/17 10:49:21;;;;;;;10.15;5.45;;;0.30;99.90;;;;;;5052967;28;20047;-77
2024/01/17 10:52:14;;;;;;;9.55;4.50;;;0.30;99.90;;;;;;5054785;28;20044;-77
2024/01/17 10:54:46;;;;;;;10.73;5.75;;;0.30;99.90;;;;;;5052924;28;20063;-77
2024/01/17 10:57:14;;;;;;;10.73;5.13;;;0.20;99.90;;;;;;5053224;28;20040;-77
2024/01/17 10:59:47;;;;;;;11.18;5.07;;;0.30;99.90;;;;;;5053194;28;20052;-77
2024/01/17 11:02:23;;;;;;;12.02;3.05;;;0.30;99.90;;;;;;5039270;28;20048;-77
2024/01/17 11:05:01;;;;;;;6.90;3.40;;;0.30;99.90;;;;;;5032128;28;20037;-77
2024/01/17 11:07:27;;;;;;;12.32;6.05;;;0.30;99.90;;;;;;5070630;28;20076;-77
2024/01/17 11:09:55;;;;;;;9.27;4.75;;;0.30;99.90;;;;;;5062828;28;20118;-78
2024/01/17 11:12:22;;;;;;;9.60;5.43;;;0.30;99.90;;;;;;5035939;28;20032;-79
2024/01/17 11:14:50;;;;;;;10.35;5.40;;;0.40;99.90;;;;;;5032932;28;20040;-79
2024/01/17 11:17:16;;;;;;;10.15;4.55;;;0.40;99.90;;;;;;5037782;28;20036;-79
2024/01/17 11:19:44;;;;;;;12.25;4.95;;;0.50;99.90;;;;;;5035043;28;20050;-79
2024/01/17 11:22:11;;;;;;;14.70;5.53;;;0.60;99.90;;;;;;5048905;28;20080;-79
2024/01/17 11:24:51;;;;;;;10.13;5.13;;;0.50;99.90;;;;;;5037702;28;20090;-73
2024/01/17 11:27:27;;;;;;;11.00;5.75;;;0.60;99.90;;;;;;5042355;28;20048;-76
2024/01/17 11:30:03;;;;;;;10.77;5.40;;;0.50;99.90;;;;;;5049735;28;20509;-79
2024/01/17 11:32:42;;;;;;;11.57;5.30;;;0.50;99.90;;;;;;5049009;28;20321;-82
2024/01/17 11:35:08;;;;;;;8.10;4.38;;;0.60;99.90;;;;;;5039608;28;20044;-79
2024/01/17 11:37:34;;;;;;;11.00;4.53;;;0.60;99.90;;;;;;5059142;28;20036;-75
2024/01/17 11:40:04;;;;;;;12.13;4.63;;;0.60;99.90;;;;;;5031926;28;20119;-79
2024/01/17 11:42:31;;;;;;;11.20;5.55;;;0.60;99.90;;;;;;5036965;28;20392;-79
2024/01/17 11:44:57;;;;;;;12.93;5.18;;;0.60;99.90;;;;;;5043264;28;20114;-79
2024/01/17 11:47:22;;;;;;;11.55;5.60;;;0.70;99.90;;;;;;5053912;28;20492;-79
2024/01/17 11:49:49;;;;;;;11.55;5.45;;;0.50;99.90;;;;;;5045231;28;20040;-78
2024/01/17 11:52:34;;;;;;;13.10;5.45;;;0.30;99.90;;;;;;5058151;28;20032;-80
2024/01/17 11:55:01;;;;;;;11.15;5.45;;;0.30;99.90;;;;;;5044640;28;20036;-80
2024/01/17 11:57:28;;;;;;;10.63;5.65;;;0.40;99.90;;;;;;5036964;28;20045;-80
2024/01/17 12:00:24;;;;;;;14.32;6.47;;;0.40;99.90;;;;;;5050926;28;20048;-79
2024/01/17 12:02:50;;;;;;;9.05;4.30;;;0.30;99.90;;;;;;5020118;28;20131;-80
2024/01/17 12:05:15;;;;;;;11.55;5.35;;;0.50;99.90;;;;;;5037730;28;20524;-80
2024/01/17 12:07:44;;;;;;;12.07;4.97;;;0.60;99.90;;;;;;5037995;28;20036;-80
2024/01/17 12:10:12;;;;;;;10.20;4.85;;;0.60;99.90;;;;;;5037175;28;20109;-80
2024/01/17 12:12:38;;;;;;;10.27;5.50;;;0.60;99.90;;;;;;5037739;28;20503;-80
2024/01/17 12:15:05;;;;;;;10.75;5.68;;;0.70;99.90;;;;;;5052464;28;20040;-80
2024/01/17 12:17:33;;;;;;;10.10;6.28;;;0.60;99.90;;;;;;5054467;28;20037;-80
2024/01/17 12:20:00;;;;;;;10.20;4.63;;;0.60;99.90;;;;;;5034724;28;20122;-80
2024/01/17 12:22:26;;;;;;;13.93;5.70;;;0.70;99.90;;;;;;5039223;28;20036;-80
2024/01/17 12:24:53;;;;;;;9.50;5.35;;;0.70;99.90;;;;;;5056611;28;20048;-80
2024/01/17 12:27:19;;;;;;;11.55;5.32;;;0.70;99.90;;;;;;5041505;28;20039;-80
2024/01/17 12:29:47;;;;;;;11.70;5.43;;;0.70;99.90;;;;;;5058025;28;20032;-80
2024/01/17 12:32:13;;;;;;;9.93;5.05;;;0.70;99.90;;;;;;5057452;28;20511;-80
2024/01/17 12:34:41;;;;;;;9.93;5.30;;;0.60;99.90;;;;;;5039656;28;20528;-81
2024/01/17 12:37:07;;;;;;;10.70;5.38;;;0.70;99.90;;;;;;5041623;28;20127;-81
2024/01/17 12:39:36;;;;;;;12.00;5.35;;;0.70;99.90;;;;;;5041031;28;20119;-81
2024/01/17 12:42:03;;;;;;;12.10;5.45;;;0.70;99.90;;;;;;5057942;28;20399;-80
2024/01/17 12:44:30;;;;;;;12.23;5.88;;;0.70;99.90;;;;;;5039331;28;20029;-81
2024/01/17 12:46:57;;;;;;;12.32;6.22;;;0.60;99.90;;;;;;5054957;28;20029;-81
2024/01/17 12:49:22;;;;;;;11.90;6.07;;;0.50;99.90;;;;;;5057323;28;20401;-80